createdAt,value
2022-10-01T00:00:04.858Z,99910.63
2022-10-01T00:02:31.266Z,99901.63
2022-10-01T00:04:58.115Z,99921.06
2022-10-01T00:07:24.447Z,99955.03
2022-10-01T00:09:50.826Z,99858.34
2022-10-01T00:12:17.146Z,99918.34
2022-10-01T00:14:44.534Z,99895.38
2022-10-01T00:17:10.923Z,99887.84
2022-10-01T00:19:37.294Z,99859.69
2022-10-01T00:22:03.750Z,99818.66
2022-10-01T00:24:30.078Z,99869.34
2022-10-01T00:26:57.658Z,99855.19
2022-10-01T00:29:23.983Z,99876.84
2022-10-01T00:31:50.429Z,99834.41
2022-10-01T00:34:16.783Z,99848.38
2022-10-01T00:36:43.199Z,99848.78
2022-10-01T00:39:11.928Z,99834.63
2022-10-01T00:41:38.481Z,99796.06
2022-10-01T00:44:28.649Z,99830.03
2022-10-01T00:46:58.339Z,99819.38
2022-10-01T00:49:27.827Z,99820.72
2022-10-01T00:51:58.023Z,99762.53
2022-10-01T00:54:31.569Z,99788.53
2022-10-01T00:57:00.662Z,99771.63
2022-10-01T00:59:28.435Z,99786.31
2022-10-01T01:01:54.903Z,99760.59
2022-10-01T01:04:21.383Z,99744.69
2022-10-01T01:06:59.448Z,99758.81
2022-10-01T01:09:36.145Z,99761.16
2022-10-01T01:12:40.007Z,99747.53
2022-10-01T01:15:20.339Z,99700.81
2022-10-01T01:17:57.582Z,99730.38
2022-10-01T01:20:57.277Z,99731.59
2022-10-01T01:23:29.170Z,99681.47
2022-10-01T01:26:10.491Z,99679.63
2022-10-01T01:28:47.646Z,99593.75
2022-10-01T01:31:18.608Z,99671.88
2022-10-01T01:33:49.727Z,99688.97
2022-10-01T01:36:20.245Z,99674.97
2022-10-01T01:38:51.923Z,99700.63
2022-10-01T01:41:20.686Z,99693.56
2022-10-01T01:43:51.255Z,99694.22
2022-10-01T01:46:19.023Z,99679.44
2022-10-01T01:48:50.835Z,99695.94
2022-10-01T01:51:24.816Z,99664.09
2022-10-01T01:53:51.336Z,99712.31
2022-10-01T01:56:18.106Z,99697.06
2022-10-01T01:58:45.640Z,99668.25
2022-10-01T02:01:41.257Z,99705.44
2022-10-01T02:04:34.095Z,99652.47
2022-10-01T02:07:16.956Z,99693.97
2022-10-01T02:09:53.118Z,99681.13
2022-10-01T02:12:34.265Z,99676.16
2022-10-01T02:15:13.347Z,99673.69
2022-10-01T02:18:00.982Z,99678.78
2022-10-01T02:20:45.590Z,99644.09
2022-10-01T02:23:17.100Z,99613.09
2022-10-01T02:25:49.717Z,99599.84
2022-10-01T02:28:21.233Z,99643.34
2022-10-01T02:30:49.423Z,99636.09
2022-10-01T02:33:22.811Z,99673.81
2022-10-01T02:35:53.160Z,99653.81
2022-10-01T02:38:23.117Z,99656.47
2022-10-01T02:40:53.729Z,99653.59
2022-10-01T02:43:27.978Z,99656.63
2022-10-01T02:46:00.011Z,99643.72
2022-10-01T02:48:27.122Z,99587.16
2022-10-01T02:51:04.220Z,99576.78
2022-10-01T02:53:37.330Z,99602.00
2022-10-01T02:56:05.843Z,99612.22
2022-10-01T02:58:32.312Z,99574.59
2022-10-01T03:00:58.665Z,99578.34
2022-10-01T03:03:26.062Z,99593.34
2022-10-01T03:05:52.402Z,99586.00
2022-10-01T03:08:19.455Z,99566.72
2022-10-01T03:10:46.889Z,99578.50
2022-10-01T03:13:13.677Z,99587.81
2022-10-01T03:15:40.135Z,99552.78
2022-10-01T03:18:06.502Z,99484.88
2022-10-01T03:20:32.799Z,99543.16
2022-10-01T03:22:59.117Z,99533.88
2022-10-01T03:25:25.436Z,99505.34
2022-10-01T03:27:52.074Z,99521.47
2022-10-01T03:30:18.664Z,99482.31
2022-10-01T03:32:44.993Z,99443.63
2022-10-01T03:35:11.424Z,99444.44
2022-10-01T03:37:37.786Z,99427.34
2022-10-01T03:40:04.768Z,99461.13
2022-10-01T03:42:31.114Z,99467.56
2022-10-01T03:44:57.447Z,99435.53
2022-10-01T03:47:24.254Z,99434.28
2022-10-01T03:49:50.544Z,99519.72
2022-10-01T03:52:16.915Z,99520.63
2022-10-01T03:54:43.221Z,99484.00
2022-10-01T03:57:09.573Z,99442.22
2022-10-01T03:59:36.083Z,99487.81
2022-10-01T04:02:02.810Z,99477.84
2022-10-01T04:04:29.228Z,99459.13
2022-10-01T04:06:55.588Z,99469.31
2022-10-01T04:09:21.959Z,99499.97
2022-10-01T04:11:48.690Z,99473.09
2022-10-01T04:14:14.983Z,99499.91
2022-10-01T04:16:41.310Z,99475.94
2022-10-01T04:19:07.696Z,99486.38
2022-10-01T04:21:34.274Z,99500.53
2022-10-01T04:24:02.980Z,99510.06
2022-10-01T04:26:29.288Z,99528.88
2022-10-01T04:28:55.637Z,99517.84
2022-10-01T04:31:24.982Z,99520.47
2022-10-01T04:33:56.554Z,99529.59
2022-10-01T04:36:24.035Z,99537.66
2022-10-01T04:38:52.246Z,99509.75
2022-10-01T04:41:19.475Z,99508.59
2022-10-01T04:43:46.003Z,99492.19
2022-10-01T04:46:12.407Z,99514.59
2022-10-01T04:48:38.760Z,99492.50
2022-10-01T04:51:05.172Z,99529.91
2022-10-01T04:53:31.635Z,99537.13
2022-10-01T04:55:58.016Z,99471.06
2022-10-01T04:58:24.442Z,99515.53
2022-10-01T05:00:50.878Z,99495.75
2022-10-01T05:03:17.782Z,99501.00
2022-10-01T05:05:44.366Z,99534.69
2022-10-01T05:08:10.695Z,99514.59
2022-10-01T05:10:37.088Z,99540.28
2022-10-01T05:13:03.438Z,99513.84
2022-10-01T05:15:30.529Z,99529.63
2022-10-01T05:17:57.006Z,99533.63
2022-10-01T05:20:26.039Z,99525.41
2022-10-01T05:22:53.162Z,99550.78
2022-10-01T05:25:19.871Z,99494.66
2022-10-01T05:27:46.563Z,99523.69
2022-10-01T05:30:17.343Z,99531.44
2022-10-01T05:32:43.674Z,99499.16
2022-10-01T05:35:09.990Z,99495.91
2022-10-01T05:37:36.364Z,99534.25
2022-10-01T05:40:02.896Z,99527.72
2022-10-01T05:42:29.221Z,99528.75
2022-10-01T05:44:55.985Z,99525.31
2022-10-01T05:47:22.504Z,99467.06
2022-10-01T05:49:48.818Z,99541.66
2022-10-01T05:52:16.296Z,99574.13
2022-10-01T05:54:42.792Z,99541.19
2022-10-01T05:57:09.430Z,99462.94
2022-10-01T05:59:35.892Z,99472.56
2022-10-01T06:02:02.717Z,99600.13
2022-10-01T06:04:29.167Z,99594.78
2022-10-01T06:06:56.107Z,99574.53
2022-10-01T06:09:22.529Z,99594.91
2022-10-01T06:11:49.429Z,99574.75
2022-10-01T06:14:16.362Z,99494.69
2022-10-01T06:16:42.808Z,99501.16
2022-10-01T06:19:09.177Z,99552.31
2022-10-01T06:21:36.066Z,99550.47
2022-10-01T06:24:02.654Z,99584.66
2022-10-01T06:26:28.988Z,99596.19
2022-10-01T06:28:55.301Z,99595.88
2022-10-01T06:31:21.998Z,99447.22
2022-10-01T06:33:48.498Z,99586.69
2022-10-01T06:36:14.932Z,99564.94
2022-10-01T06:38:42.837Z,99569.59
2022-10-01T06:41:09.532Z,99599.59
2022-10-01T06:43:36.211Z,99610.53
2022-10-01T06:46:04.971Z,99604.16
2022-10-01T06:48:32.355Z,99617.16
2022-10-01T06:50:59.403Z,99605.47
2022-10-01T06:53:27.681Z,99573.91
2022-10-01T06:55:54.489Z,99615.75
2022-10-01T06:58:22.705Z,99618.06
2022-10-01T07:00:49.750Z,99619.91
2022-10-01T07:03:21.680Z,99609.94
2022-10-01T07:05:50.062Z,99629.88
2022-10-01T07:08:17.649Z,99629.22
2022-10-01T07:10:44.324Z,99637.72
2022-10-01T07:13:12.050Z,99630.84
2022-10-01T07:15:38.752Z,99627.75
2022-10-01T07:18:06.218Z,99635.81
2022-10-01T07:20:35.831Z,99601.16
2022-10-01T07:23:02.508Z,99463.50
2022-10-01T07:25:29.593Z,99642.91
2022-10-01T07:28:04.495Z,99596.84
2022-10-01T07:30:32.342Z,99650.72
2022-10-01T07:32:59.116Z,99622.81
2022-10-01T07:35:25.775Z,99628.78
2022-10-01T07:37:53.562Z,99637.66
2022-10-01T07:40:19.861Z,99527.13
2022-10-01T07:42:54.563Z,99670.41
2022-10-01T07:45:24.862Z,99672.56
2022-10-01T07:47:59.702Z,99640.25
2022-10-01T07:50:29.456Z,99647.56
2022-10-01T07:52:57.870Z,99676.59
2022-10-01T07:55:26.871Z,99664.03
2022-10-01T07:57:55.060Z,99687.59
2022-10-01T08:00:22.694Z,99681.41
2022-10-01T08:02:51.221Z,99681.41
2022-10-01T08:05:20.079Z,99669.31
2022-10-01T08:07:47.665Z,99693.03
2022-10-01T08:10:17.419Z,99690.06
2022-10-01T08:12:44.185Z,99632.41
2022-10-01T08:15:12.104Z,99697.50
2022-10-01T08:17:42.030Z,99699.38
2022-10-01T08:20:10.638Z,99704.00
2022-10-01T08:22:41.658Z,99661.19
2022-10-01T08:25:08.906Z,99681.25
2022-10-01T08:27:35.345Z,99691.94
2022-10-01T08:30:01.694Z,99708.19
2022-10-01T08:32:28.225Z,99670.63
2022-10-01T08:34:59.837Z,99696.38
2022-10-01T08:37:28.467Z,99713.19
2022-10-01T08:39:56.416Z,99724.66
2022-10-01T08:42:22.746Z,99737.94
2022-10-01T08:44:51.945Z,99740.16
2022-10-01T08:47:35.535Z,99716.50
2022-10-01T08:50:28.655Z,99667.63
2022-10-01T08:53:01.565Z,99744.19
2022-10-01T08:55:36.052Z,99726.47
2022-10-01T08:58:05.772Z,99755.53
2022-10-01T09:00:36.999Z,99769.63
2022-10-01T09:03:11.720Z,99768.84
2022-10-01T09:05:41.216Z,99767.97
2022-10-01T09:08:43.593Z,99775.13
2022-10-01T09:11:52.240Z,99783.56
2022-10-01T09:14:40.594Z,99788.28
2022-10-01T09:17:30.490Z,99790.56
2022-10-01T09:20:06.426Z,99761.91
2022-10-01T09:22:47.723Z,99797.25
2022-10-01T09:25:21.997Z,99793.78
2022-10-01T09:27:49.635Z,99778.22
2022-10-01T09:30:25.086Z,99747.31
2022-10-01T09:33:09.018Z,99797.59
2022-10-01T09:35:46.965Z,99807.06
2022-10-01T09:38:21.829Z,99766.50
2022-10-01T09:40:54.856Z,99774.50
2022-10-01T09:43:33.068Z,99802.84
2022-10-01T09:46:00.001Z,99747.09
2022-10-01T09:48:49.363Z,99808.53
2022-10-01T09:51:41.133Z,99803.69
2022-10-01T09:54:17.949Z,99788.78
2022-10-01T09:56:59.165Z,99754.78
2022-10-01T09:59:34.425Z,99809.25
2022-10-01T10:02:04.044Z,99811.81
2022-10-01T10:04:30.952Z,99780.81
2022-10-01T10:07:03.857Z,99781.13
2022-10-01T10:09:33.088Z,99804.66
2022-10-01T10:12:00.039Z,99766.03
2022-10-01T10:14:33.753Z,99796.34
2022-10-01T10:17:13.006Z,99817.91
2022-10-01T10:19:41.100Z,99790.88
2022-10-01T10:22:13.556Z,99805.81
2022-10-01T10:24:39.927Z,99761.28
2022-10-01T10:27:20.793Z,99811.66
2022-10-01T10:29:47.246Z,99827.31
2022-10-01T10:32:26.097Z,99795.69
2022-10-01T10:35:02.042Z,99818.13
2022-10-01T10:37:37.494Z,99842.25
2022-10-01T10:40:08.143Z,99835.91
2022-10-01T10:42:38.708Z,99800.28
2022-10-01T10:45:16.367Z,99814.13
2022-10-01T10:47:53.210Z,99798.09
2022-10-01T10:50:35.997Z,99854.56
2022-10-01T10:53:19.765Z,99860.06
2022-10-01T10:56:03.766Z,99844.34
2022-10-01T10:58:33.132Z,99870.25
2022-10-01T11:01:05.985Z,99839.28
2022-10-01T11:03:33.093Z,99866.13
2022-10-01T11:06:09.270Z,99876.72
2022-10-01T11:08:35.767Z,99845.84
2022-10-01T11:11:07.319Z,99865.91
2022-10-01T11:13:37.883Z,99895.03
2022-10-01T11:16:25.317Z,99847.59
2022-10-01T11:19:01.475Z,99892.59
2022-10-01T11:21:34.192Z,99894.84
2022-10-01T11:24:03.237Z,99898.81
2022-10-01T11:26:53.512Z,99902.94
2022-10-01T11:29:53.677Z,99872.41
2022-10-01T11:32:35.885Z,99875.22
2022-10-01T11:35:11.470Z,99873.78
2022-10-01T11:37:49.425Z,99912.25
2022-10-01T11:40:24.824Z,99876.09
2022-10-01T11:42:57.536Z,99911.75
2022-10-01T11:45:35.866Z,99929.69
2022-10-01T11:48:10.375Z,99937.19
2022-10-01T11:50:42.630Z,99906.94
2022-10-01T11:53:21.972Z,99919.47
2022-10-01T11:56:14.558Z,99936.53
2022-10-01T11:59:03.161Z,99918.25
2022-10-01T12:01:42.334Z,99932.00
2022-10-01T12:04:25.301Z,99888.25
2022-10-01T12:07:10.539Z,99920.06
2022-10-01T12:09:54.660Z,99923.19
2022-10-01T12:12:36.203Z,99927.16
2022-10-01T12:15:26.708Z,99943.81
2022-10-01T12:17:59.958Z,99947.22
2022-10-01T12:20:41.256Z,99934.53
2022-10-01T12:23:14.764Z,99951.53
2022-10-01T12:25:54.910Z,99926.75
2022-10-01T12:28:42.392Z,99935.69
2022-10-01T12:31:34.587Z,99959.97
2022-10-01T12:34:13.004Z,99965.63
2022-10-01T12:36:42.563Z,99956.47
2022-10-01T12:39:26.039Z,99951.50
2022-10-01T12:42:13.755Z,99972.88
2022-10-01T12:45:05.027Z,99952.03
2022-10-01T12:47:42.866Z,99976.97
2022-10-01T12:50:27.825Z,99987.56
2022-10-01T12:53:02.608Z,99970.16
2022-10-01T12:55:51.513Z,99999.25
2022-10-01T12:58:36.384Z,99985.50
2022-10-01T13:01:21.674Z,99984.81
2022-10-01T13:04:20.413Z,99985.28
2022-10-01T13:07:19.270Z,99997.69
2022-10-01T13:09:57.771Z,99999.38
2022-10-01T13:13:11.311Z,99969.97
2022-10-01T13:15:40.942Z,99984.56
2022-10-01T13:18:20.981Z,99966.75
2022-10-01T13:21:06.636Z,100001.91
2022-10-01T13:24:20.627Z,100016.59
2022-10-01T13:26:51.848Z,100016.75
2022-10-01T13:29:35.501Z,100009.75
2022-10-01T13:32:30.804Z,100023.00
2022-10-01T13:34:58.755Z,100003.47
2022-10-01T13:37:40.425Z,100034.94
2022-10-01T13:40:27.396Z,100045.84
2022-10-01T13:42:58.108Z,100002.75
2022-10-01T13:45:43.705Z,100060.91
2022-10-01T13:48:09.986Z,100043.19
2022-10-01T13:50:38.820Z,100027.88
2022-10-01T13:53:20.872Z,100057.50
2022-10-01T13:55:48.720Z,100049.28
2022-10-01T13:58:31.376Z,100046.44
2022-10-01T14:01:04.611Z,100071.84
2022-10-01T14:03:39.151Z,100073.00
2022-10-01T14:06:15.228Z,100047.69
2022-10-01T14:08:47.578Z,100066.19
2022-10-01T14:11:41.925Z,100067.22
2022-10-01T14:15:13.170Z,100078.13
2022-10-01T14:17:41.175Z,100057.44
2022-10-01T14:20:08.522Z,100035.81
2022-10-01T14:23:20.075Z,100036.19
2022-10-01T14:25:56.793Z,100091.97
2022-10-01T14:28:31.434Z,100054.63
2022-10-01T14:31:28.934Z,100060.88
2022-10-01T14:34:10.324Z,100105.06
2022-10-01T14:36:44.056Z,100066.78
2022-10-01T14:39:13.324Z,100136.72
2022-10-01T14:41:39.706Z,100063.31
2022-10-01T14:44:40.395Z,100060.81
2022-10-01T14:47:24.420Z,100099.72
2022-10-01T14:49:51.797Z,100117.72
2022-10-01T14:52:27.744Z,100100.28
2022-10-01T14:54:59.188Z,100140.09
2022-10-01T14:57:49.391Z,100122.19
2022-10-01T15:00:18.750Z,100148.09
2022-10-01T15:02:51.957Z,100153.88
2022-10-01T15:05:27.978Z,100160.44
2022-10-01T15:07:54.468Z,100163.41
2022-10-01T15:10:25.705Z,100173.56
2022-10-01T15:12:53.953Z,100115.28
2022-10-01T15:15:23.059Z,100163.25
2022-10-01T15:17:50.529Z,100167.66
2022-10-01T15:20:17.706Z,100138.53
2022-10-01T15:22:47.540Z,100150.03
2022-10-01T15:25:22.282Z,100137.88
2022-10-01T15:27:49.521Z,100180.56
2022-10-01T15:30:18.248Z,100178.38
2022-10-01T15:32:46.649Z,100182.94
2022-10-01T15:35:16.945Z,100200.91
2022-10-01T15:37:49.326Z,100169.72
2022-10-01T15:40:29.638Z,100210.94
2022-10-01T15:43:07.988Z,100196.22
2022-10-01T15:45:36.949Z,100184.38
2022-10-01T15:48:03.435Z,100176.78
2022-10-01T15:50:39.330Z,100189.66
2022-10-01T15:53:19.614Z,100191.34
2022-10-01T15:55:50.079Z,100225.63
2022-10-01T15:58:32.193Z,100228.13
2022-10-01T16:01:05.107Z,100225.13
2022-10-01T16:03:40.662Z,100215.69
2022-10-01T16:06:42.323Z,100221.13
2022-10-01T16:09:18.923Z,100239.31
2022-10-01T16:12:12.041Z,100199.47
2022-10-01T16:14:43.908Z,100189.28
2022-10-01T16:17:19.626Z,100255.88
2022-10-01T16:19:52.110Z,100228.59
2022-10-01T16:22:32.662Z,100245.47
2022-10-01T16:25:25.826Z,100269.91
2022-10-01T16:28:01.193Z,100272.75
2022-10-01T16:30:29.588Z,100271.19
2022-10-01T16:32:59.070Z,100236.69
2022-10-01T16:35:31.040Z,100291.91
2022-10-01T16:37:58.031Z,100266.97
2022-10-01T16:40:30.604Z,100268.56
2022-10-01T16:42:59.090Z,100307.31
2022-10-01T16:45:29.509Z,100301.16
2022-10-01T16:47:59.305Z,100280.91
2022-10-01T16:50:26.015Z,100318.97
2022-10-01T16:52:53.599Z,100295.94
2022-10-01T16:55:24.290Z,100330.41
2022-10-01T16:57:51.466Z,100327.34
2022-10-01T17:00:20.098Z,100337.09
2022-10-01T17:02:46.674Z,100315.41
2022-10-01T17:05:18.502Z,100338.97
2022-10-01T17:07:45.150Z,100346.56
2022-10-01T17:10:13.482Z,100326.34
2022-10-01T17:12:41.091Z,100319.59
2022-10-01T17:15:11.917Z,100326.25
2022-10-01T17:17:38.209Z,100336.56
2022-10-01T17:20:05.315Z,100365.28
2022-10-01T17:22:31.762Z,100374.50
2022-10-01T17:24:58.130Z,100350.56
2022-10-01T17:27:24.487Z,100357.81
2022-10-01T17:29:50.795Z,100370.22
2022-10-01T17:32:18.871Z,100371.06
2022-10-01T17:34:45.929Z,100381.38
2022-10-01T17:37:12.798Z,100380.84
2022-10-01T17:39:42.967Z,100402.84
2022-10-01T17:42:10.245Z,100413.97
2022-10-01T17:44:36.961Z,100423.13
2022-10-01T17:47:04.529Z,100432.56
2022-10-01T17:49:31.117Z,100402.56
2022-10-01T17:51:57.416Z,100409.78
2022-10-01T17:54:24.270Z,100397.09
2022-10-01T17:56:55.087Z,100457.25
2022-10-01T17:59:21.739Z,100414.13
2022-10-01T18:01:48.251Z,100408.31
2022-10-01T18:04:14.674Z,100438.69
2022-10-01T18:06:41.334Z,100458.44
2022-10-01T18:09:07.934Z,100448.09
2022-10-01T18:11:34.301Z,100398.78
2022-10-01T18:14:00.683Z,100454.94
2022-10-01T18:16:27.906Z,100493.50
2022-10-01T18:21:46.365Z,100496.44
2022-10-01T18:24:12.949Z,100492.41
2022-10-01T18:26:39.731Z,100464.59
2022-10-01T18:29:06.264Z,100509.06
2022-10-01T18:31:38.663Z,100492.97
2022-10-01T18:34:16.150Z,100480.59
2022-10-01T18:36:57.888Z,100481.91
2022-10-01T18:39:33.347Z,100529.81
2022-10-01T18:42:02.360Z,100524.53
2022-10-01T18:44:28.862Z,100480.97
2022-10-01T18:47:06.975Z,100528.28
2022-10-01T18:49:48.754Z,100517.53
2022-10-01T18:52:47.812Z,100538.31
2022-10-01T18:55:51.461Z,100544.94
2022-10-01T18:58:36.263Z,100551.72
2022-10-01T19:01:34.842Z,100551.09
2022-10-01T19:04:19.774Z,100498.25
2022-10-01T19:06:54.686Z,100423.56
2022-10-01T19:09:27.108Z,100565.09
2022-10-01T19:12:04.830Z,100477.91
2022-10-01T19:15:00.483Z,100563.84
2022-10-01T19:17:42.044Z,100580.16
2022-10-01T19:20:33.299Z,100584.00
2022-10-01T19:23:26.524Z,100580.25
2022-10-01T19:26:10.328Z,100575.69
2022-10-01T19:28:48.368Z,100572.13
2022-10-01T19:31:20.804Z,100587.63
2022-10-01T19:34:00.732Z,100587.63
2022-10-01T19:36:34.768Z,100595.91
2022-10-01T19:39:06.359Z,100598.53
2022-10-01T19:41:38.831Z,100603.84
2022-10-01T19:44:20.697Z,100576.25
2022-10-01T19:46:49.655Z,100602.31
2022-10-01T19:49:27.393Z,100601.47
2022-10-01T19:52:03.266Z,100602.25
2022-10-01T19:54:33.249Z,100544.13
2022-10-01T19:57:24.753Z,100565.31
2022-10-01T19:59:56.840Z,100617.25
2022-10-01T20:02:38.011Z,100616.34
2022-10-01T20:05:18.332Z,100609.81
2022-10-01T20:08:11.147Z,100504.84
2022-10-01T20:10:41.407Z,100621.28
2022-10-01T20:13:33.460Z,100593.50
2022-10-01T20:16:20.070Z,100631.81
2022-10-01T20:18:58.756Z,100639.59
2022-10-01T20:21:36.919Z,100638.97
2022-10-01T20:24:14.367Z,100629.06
2022-10-01T20:26:52.191Z,100640.56
2022-10-01T20:29:29.529Z,100639.97
2022-10-01T20:32:08.658Z,100551.13
2022-10-01T20:34:44.936Z,100632.69
2022-10-01T20:37:24.977Z,100654.94
2022-10-01T20:39:59.815Z,100632.34
2022-10-01T20:42:33.819Z,100616.38
2022-10-01T20:45:00.765Z,100654.72
2022-10-01T20:47:37.030Z,100634.25
2022-10-01T20:50:24.647Z,100666.88
2022-10-01T20:53:09.866Z,100678.66
2022-10-01T20:55:41.406Z,100671.47
2022-10-01T20:58:17.844Z,100683.09
2022-10-01T21:00:46.003Z,100623.25
2022-10-01T21:03:19.230Z,100693.66
2022-10-01T21:05:53.536Z,100654.03
2022-10-01T21:08:28.835Z,100692.66
2022-10-01T21:10:57.836Z,100693.53
2022-10-01T21:13:36.686Z,100689.69
2022-10-01T21:16:20.753Z,100687.03
2022-10-01T21:19:06.716Z,100681.88
2022-10-01T21:21:56.622Z,100692.44
2022-10-01T21:24:48.530Z,100678.88
2022-10-01T21:27:33.792Z,100697.84
2022-10-01T21:30:14.154Z,100692.44
2022-10-01T21:33:08.390Z,100698.47
2022-10-01T21:35:46.945Z,100707.44
2022-10-01T21:38:19.398Z,100710.88
2022-10-01T21:41:16.103Z,100706.16
2022-10-01T21:43:56.557Z,100705.97
2022-10-01T21:46:55.114Z,100698.00
2022-10-01T21:49:39.618Z,100723.03
2022-10-01T21:52:26.775Z,100729.91
2022-10-01T21:55:05.274Z,100732.72
2022-10-01T21:57:43.076Z,100730.28
2022-10-01T22:00:22.816Z,100742.19
2022-10-01T22:03:22.592Z,100734.78
2022-10-01T22:06:01.006Z,100731.22
2022-10-01T22:08:48.236Z,100738.34
2022-10-01T22:11:22.304Z,100753.81
2022-10-01T22:14:16.300Z,100755.75
2022-10-01T22:16:48.530Z,100722.38
2022-10-01T22:19:19.295Z,100766.31
2022-10-01T22:21:50.473Z,100763.53
2022-10-01T22:24:21.664Z,100772.50
2022-10-01T22:26:57.553Z,100755.28
2022-10-01T22:29:28.732Z,100784.25
2022-10-01T22:32:01.250Z,100779.25
2022-10-01T22:34:34.044Z,100781.09
2022-10-01T22:37:07.921Z,100788.09
2022-10-01T22:39:40.026Z,100780.84
2022-10-01T22:42:14.157Z,100765.13
2022-10-01T22:44:40.675Z,100750.63
2022-10-01T22:47:22.515Z,100765.75
2022-10-01T22:50:08.667Z,100776.88
2022-10-01T22:52:44.088Z,100774.09
2022-10-01T22:55:24.600Z,100775.28
2022-10-01T22:57:51.181Z,100785.72
2022-10-01T23:00:18.149Z,100775.63
2022-10-01T23:03:06.355Z,100788.94
2022-10-01T23:05:57.156Z,100791.25
2022-10-01T23:08:45.142Z,100779.38
2022-10-01T23:11:28.037Z,100755.97
2022-10-01T23:14:30.431Z,100782.41
2022-10-01T23:17:08.967Z,100775.28
2022-10-01T23:19:48.185Z,100776.06
2022-10-01T23:22:32.432Z,100785.97
2022-10-01T23:25:13.985Z,100780.31
2022-10-01T23:28:09.664Z,100767.25
2022-10-01T23:30:57.300Z,100793.06
2022-10-01T23:33:37.598Z,100780.53
2022-10-01T23:36:21.689Z,100745.19
2022-10-01T23:39:25.689Z,100793.22
2022-10-01T23:42:02.003Z,100786.94
2022-10-01T23:44:55.744Z,100781.69
2022-10-01T23:47:30.870Z,100769.28
2022-10-01T23:50:00.366Z,100776.03
2022-10-01T23:52:38.401Z,100724.75
2022-10-01T23:55:40.558Z,100784.75
2022-10-01T23:58:13.188Z,100781.31
